Time;durP1;ratioP1;P1;durP2;ratioP2;P2;SDS_P1;SDS_P2;PMS_P1;PMS_P2;Temp;Humidity;BMP_temperature;BMP_pressure;BME280_temperature;BME280_humidity;BME280_pressure;Samples;Min_cycle;Max_cycle;Signal;HPM_P1;HPM_P2
2023/01/10 00:01:50;;;;;;;2.10;1.67;;;17.60;51.40;;;;;;5014949;28;20640;-79
2023/01/10 00:04:17;;;;;;;1.42;1.33;;;17.60;51.40;;;;;;5014396;28;20201;-79
2023/01/10 00:06:44;;;;;;;1.58;1.27;;;17.60;51.50;;;;;;5013989;28;20201;-79
2023/01/10 00:09:12;;;;;;;1.60;1.50;;;17.60;51.50;;;;;;5013969;28;20563;-79
2023/01/10 00:14:24;;;;;;;1.67;1.17;;;17.50;51.60;;;;;;5014317;28;20247;-79
2023/01/10 00:16:52;;;;;;;1.83;1.48;;;17.50;51.60;;;;;;5015030;28;20208;-79
2023/01/10 00:19:19;;;;;;;1.85;1.30;;;17.50;51.80;;;;;;5014333;28;20207;-79
2023/01/10 00:21:46;;;;;;;1.45;1.35;;;17.50;51.60;;;;;;5014572;28;20189;-79
2023/01/10 00:24:18;;;;;;;1.73;1.30;;;17.50;51.60;;;;;;5013705;28;20207;-79
2023/01/10 00:26:49;;;;;;;1.10;1.10;;;17.50;51.70;;;;;;5013242;28;20196;-79
2023/01/10 00:29:18;;;;;;;1.88;1.17;;;17.40;51.60;;;;;;5013427;28;20197;-79
2023/01/10 00:31:44;;;;;;;1.30;1.20;;;17.40;51.70;;;;;;5013192;28;20282;-79
2023/01/10 00:34:13;;;;;;;1.30;1.20;;;17.40;51.60;;;;;;5013418;28;20204;-79
2023/01/10 00:36:41;;;;;;;1.60;1.15;;;17.40;51.70;;;;;;5013829;28;20193;-79
2023/01/10 00:39:13;;;;;;;1.27;1.13;;;17.40;51.70;;;;;;5013087;28;20197;-79
2023/01/10 00:44:25;;;;;;;1.67;1.50;;;17.40;51.90;;;;;;5014573;28;20690;-79
2023/01/10 00:46:52;;;;;;;1.20;1.10;;;17.40;51.80;;;;;;5013035;28;20611;-79
2023/01/10 00:49:21;;;;;;;2.10;1.17;;;17.40;51.90;;;;;;5012879;28;20203;-79
2023/01/10 00:51:48;;;;;;;1.80;1.25;;;17.40;51.80;;;;;;5012900;28;20220;-79
2023/01/10 00:54:15;;;;;;;1.17;1.08;;;17.40;52.10;;;;;;5012674;28;20201;-79
2023/01/10 00:56:42;;;;;;;2.00;1.45;;;17.30;51.80;;;;;;5012708;28;20667;-79
2023/01/10 00:59:09;;;;;;;1.25;1.10;;;17.30;51.90;;;;;;5012486;28;20300;-79
2023/01/10 01:01:37;;;;;;;1.83;1.33;;;17.30;52.00;;;;;;5012630;28;20220;-79
2023/01/10 01:04:05;;;;;;;1.13;0.93;;;17.30;51.90;;;;;;4999359;28;20283;-79
2023/01/10 01:06:33;;;;;;;1.85;1.30;;;17.30;51.90;;;;;;5016235;28;20196;-79
2023/01/10 01:09:00;;;;;;;1.35;1.23;;;17.30;51.90;;;;;;5016202;28;20208;-79
2023/01/10 01:11:28;;;;;;;1.33;1.23;;;17.30;51.90;;;;;;5016086;28;20255;-79
2023/01/10 01:13:54;;;;;;;1.55;1.15;;;17.30;51.90;;;;;;5016303;28;20197;-79
2023/01/10 01:16:22;;;;;;;1.33;1.13;;;17.30;51.90;;;;;;5016420;28;20220;-79
2023/01/10 01:18:49;;;;;;;1.20;1.10;;;17.30;51.90;;;;;;5016300;28;20644;-79
2023/01/10 01:21:16;;;;;;;1.08;0.98;;;17.20;51.90;;;;;;5016006;28;20231;-79
2023/01/10 01:23:44;;;;;;;1.00;1.00;;;17.20;51.70;;;;;;5016383;28;20207;-79
2023/01/10 01:26:11;;;;;;;1.00;0.90;;;17.20;51.90;;;;;;5016295;28;20224;-79
2023/01/10 01:28:38;;;;;;;1.00;1.00;;;17.20;51.90;;;;;;5016665;28;20367;-79
2023/01/10 01:31:08;;;;;;;1.65;1.17;;;17.20;51.90;;;;;;5017800;28;20671;-79
2023/01/10 01:33:36;;;;;;;1.05;1.00;;;17.20;51.90;;;;;;5017598;28;20307;-79
2023/01/10 01:36:03;;;;;;;1.40;1.30;;;17.20;51.90;;;;;;5017494;28;20221;-79
2023/01/10 01:38:30;;;;;;;1.25;1.05;;;17.20;51.90;;;;;;5017757;28;20189;-79
2023/01/10 01:40:58;;;;;;;1.23;1.10;;;17.20;52.10;;;;;;5015778;28;20208;-79
2023/01/10 01:43:27;;;;;;;1.10;1.00;;;17.20;52.00;;;;;;5015773;28;20189;-79
2023/01/10 01:45:54;;;;;;;1.20;1.10;;;17.20;52.30;;;;;;5015785;28;20208;-79
2023/01/10 01:48:33;;;;;;;1.02;0.93;;;17.20;52.00;;;;;;5015599;28;20279;-79
2023/01/10 01:51:04;;;;;;;1.23;1.10;;;17.10;52.60;;;;;;5015587;28;20189;-79
2023/01/10 01:53:33;;;;;;;1.30;1.20;;;17.20;52.20;;;;;;5016944;28;20296;-79
2023/01/10 01:56:05;;;;;;;1.23;1.13;;;17.10;51.90;;;;;;5014971;28;20224;-79
2023/01/10 01:58:35;;;;;;;1.20;1.10;;;17.20;52.20;;;;;;5015218;28;20217;-79
2023/01/10 02:01:02;;;;;;;1.30;1.05;;;17.10;52.00;;;;;;5015037;28;20246;-79
2023/01/10 02:03:29;;;;;;;1.00;1.00;;;17.10;51.90;;;;;;5015795;28;20216;-79
2023/01/10 02:05:55;;;;;;;1.60;1.20;;;17.10;52.00;;;;;;5015244;28;20686;-79
2023/01/10 02:08:23;;;;;;;1.10;1.00;;;17.10;51.90;;;;;;5016129;28;20511;-79
2023/01/10 02:10:52;;;;;;;1.10;1.00;;;17.00;52.10;;;;;;5015087;28;20215;-79
2023/01/10 02:13:22;;;;;;;0.88;0.88;;;17.10;52.00;;;;;;5015333;28;20235;-79
2023/01/10 02:15:49;;;;;;;1.13;0.95;;;17.10;52.10;;;;;;5014925;28;20539;-79
2023/01/10 02:18:16;;;;;;;0.93;0.90;;;17.10;52.60;;;;;;5015376;28;20201;-79
2023/01/10 02:20:50;;;;;;;0.85;0.85;;;17.00;52.50;;;;;;5015026;28;20284;-79
2023/01/10 02:23:48;;;;;;;0.82;0.80;;;17.00;52.20;;;;;;5016145;28;20207;-78
2023/01/10 02:26:55;;;;;;;0.77;0.77;;;17.00;52.50;;;;;;5015105;28;20228;-78
2023/01/10 02:29:52;;;;;;;0.90;0.90;;;17.00;52.20;;;;;;4999137;28;20189;-79
2023/01/10 02:32:28;;;;;;;0.88;0.88;;;17.00;52.20;;;;;;5016331;28;20225;-79
2023/01/10 02:35:00;;;;;;;1.08;1.00;;;17.00;52.60;;;;;;5015945;28;20217;-79
2023/01/10 02:37:35;;;;;;;0.90;0.90;;;16.90;52.10;;;;;;5016469;28;20247;-79
2023/01/10 02:40:04;;;;;;;1.08;1.00;;;17.00;52.30;;;;;;5017378;28;20192;-79
2023/01/10 02:42:35;;;;;;;0.90;0.85;;;17.00;52.20;;;;;;5015880;28;20197;-79
2023/01/10 02:45:06;;;;;;;1.50;1.00;;;17.00;52.40;;;;;;5014936;28;20279;-79
2023/01/10 02:47:38;;;;;;;0.90;0.90;;;17.00;52.20;;;;;;5014722;28;20644;-79
2023/01/10 02:50:25;;;;;;;1.20;1.10;;;16.90;52.40;;;;;;5014361;28;20235;-79
2023/01/10 02:52:53;;;;;;;1.30;1.00;;;16.90;52.60;;;;;;4998465;28;20204;-79
2023/01/10 02:55:20;;;;;;;1.10;1.00;;;16.90;52.20;;;;;;5014249;28;20304;-79
2023/01/10 02:57:49;;;;;;;1.08;1.00;;;16.90;52.80;;;;;;5014245;28;20579;-79
2023/01/10 03:00:31;;;;;;;0.75;0.75;;;16.90;52.10;;;;;;5013984;28;20228;-79
2023/01/10 03:03:10;;;;;;;1.48;1.10;;;16.90;52.30;;;;;;5013707;28;20189;-79
2023/01/10 03:05:51;;;;;;;0.77;0.77;;;16.90;52.20;;;;;;5013670;28;20228;-79
2023/01/10 03:08:24;;;;;;;0.77;0.77;;;16.90;52.30;;;;;;5014608;28;20212;-79
2023/01/10 03:10:53;;;;;;;1.20;1.10;;;16.90;52.50;;;;;;5014112;28;20188;-79
2023/01/10 03:13:21;;;;;;;1.50;1.10;;;16.90;52.50;;;;;;5013551;28;20615;-79
2023/01/10 03:15:48;;;;;;;1.17;1.00;;;16.90;52.40;;;;;;5014069;28;20213;-79
2023/01/10 03:18:20;;;;;;;0.90;0.90;;;16.80;52.10;;;;;;5013405;28;20201;-79
2023/01/10 03:20:48;;;;;;;0.70;0.70;;;16.90;52.10;;;;;;5013750;28;20197;-79
2023/01/10 03:23:16;;;;;;;0.90;0.90;;;16.90;52.30;;;;;;5013400;28;20200;-79
2023/01/10 03:25:43;;;;;;;1.40;1.00;;;16.80;52.10;;;;;;5012745;28;20221;-79
2023/01/10 03:28:12;;;;;;;1.75;1.02;;;16.80;52.00;;;;;;5013488;28;20648;-79
2023/01/10 03:30:41;;;;;;;0.80;0.80;;;16.80;52.20;;;;;;5013648;28;20242;-79
2023/01/10 03:33:09;;;;;;;1.55;0.90;;;16.80;52.30;;;;;;5013546;28;20228;-79
2023/01/10 03:35:43;;;;;;;0.85;0.85;;;16.80;52.00;;;;;;5013493;28;20255;-79
2023/01/10 03:38:12;;;;;;;0.85;0.85;;;16.80;52.00;;;;;;5013669;28;20189;-79
2023/01/10 03:40:42;;;;;;;0.95;0.95;;;16.80;52.30;;;;;;5013506;28;20291;-79
2023/01/10 03:45:59;;;;;;;1.27;1.00;;;16.80;52.10;;;;;;5013223;28;20224;-79
2023/01/10 03:48:27;;;;;;;1.50;1.00;;;16.80;52.00;;;;;;5013395;28;20201;-79
2023/01/10 03:50:55;;;;;;;1.40;0.88;;;16.80;52.30;;;;;;5013398;28;20255;-79
2023/01/10 03:53:22;;;;;;;1.23;1.00;;;16.80;52.30;;;;;;5013147;28;20252;-79
2023/01/10 03:55:50;;;;;;;2.28;1.20;;;16.80;52.30;;;;;;5013379;28;20247;-79
2023/01/10 03:58:20;;;;;;;1.10;1.00;;;16.80;52.00;;;;;;5013684;28;20224;-79
2023/01/10 04:00:48;;;;;;;1.40;1.10;;;16.80;52.00;;;;;;5012984;28;20655;-78
2023/01/10 04:03:15;;;;;;;1.95;1.10;;;16.80;52.10;;;;;;5012914;28;20216;-79
2023/01/10 04:05:43;;;;;;;0.75;0.75;;;16.80;52.10;;;;;;5012896;28;20275;-79
2023/01/10 04:08:12;;;;;;;0.85;0.82;;;16.70;51.90;;;;;;5009733;28;20254;-79
2023/01/10 04:10:39;;;;;;;0.77;0.77;;;16.70;52.00;;;;;;4996869;28;20273;-78
2023/01/10 04:13:06;;;;;;;1.00;0.80;;;16.80;52.10;;;;;;5013010;28;20287;-79
2023/01/10 04:15:33;;;;;;;1.70;0.88;;;16.70;51.90;;;;;;5013885;28;20217;-79
2023/01/10 04:18:00;;;;;;;0.77;0.77;;;16.70;52.90;;;;;;5012891;28;20201;-79
2023/01/10 04:20:28;;;;;;;1.38;0.82;;;16.70;52.60;;;;;;5012933;28;20197;-79
2023/01/10 04:22:55;;;;;;;1.25;1.00;;;16.70;52.50;;;;;;5012774;28;20232;-79
2023/01/10 04:25:23;;;;;;;0.70;0.70;;;16.70;52.60;;;;;;5013338;28;20626;-79
2023/01/10 04:27:51;;;;;;;1.17;1.10;;;16.70;52.50;;;;;;4997374;28;20197;-79
2023/01/10 04:30:19;;;;;;;1.63;0.95;;;16.70;52.70;;;;;;4996823;28;20207;-79
2023/01/10 04:32:47;;;;;;;0.80;0.80;;;16.70;52.60;;;;;;5012667;28;20225;-79
2023/01/10 04:35:14;;;;;;;1.73;0.90;;;16.80;52.50;;;;;;5012751;28;20221;-79
2023/01/10 04:37:42;;;;;;;1.10;0.90;;;16.70;52.60;;;;;;5016184;28;20648;-79
2023/01/10 04:40:10;;;;;;;1.15;0.95;;;16.70;52.80;;;;;;5016931;28;20188;-79
2023/01/10 04:42:39;;;;;;;1.80;1.00;;;16.70;52.70;;;;;;5017111;28;20193;-79
2023/01/10 04:45:10;;;;;;;1.23;1.02;;;16.70;52.60;;;;;;5017655;28;20274;-79
2023/01/10 04:47:38;;;;;;;1.00;0.90;;;16.80;52.70;;;;;;5017301;28;20254;-79
2023/01/10 04:50:06;;;;;;;2.30;1.13;;;16.70;52.50;;;;;;5017384;28;20514;-79
2023/01/10 04:52:33;;;;;;;1.05;0.95;;;16.70;52.40;;;;;;5016803;28;20278;-79
2023/01/10 04:55:00;;;;;;;1.38;0.85;;;16.70;52.30;;;;;;5016428;28;20313;-79
2023/01/10 04:57:27;;;;;;;1.17;1.02;;;16.80;52.10;;;;;;5000222;28;20216;-79
2023/01/10 04:59:56;;;;;;;1.33;1.00;;;16.80;52.30;;;;;;5016569;28;20196;-79
2023/01/10 05:02:23;;;;;;;1.17;1.00;;;16.80;52.20;;;;;;5016467;28;20197;-79
2023/01/10 05:04:51;;;;;;;1.20;0.90;;;16.80;52.30;;;;;;5016662;28;20227;-79
2023/01/10 05:07:18;;;;;;;1.77;1.10;;;16.80;52.00;;;;;;5016732;28;20205;-79
2023/01/10 05:09:45;;;;;;;1.25;1.15;;;16.80;52.10;;;;;;5000729;28;20209;-79
2023/01/10 05:12:12;;;;;;;2.15;1.17;;;16.70;51.90;;;;;;5017116;28;20566;-79
2023/01/10 05:14:41;;;;;;;0.90;0.90;;;16.70;51.90;;;;;;5018460;28;20221;-79
2023/01/10 05:17:09;;;;;;;0.95;0.95;;;16.80;51.70;;;;;;5018650;28;20212;-79
2023/01/10 05:19:36;;;;;;;1.15;1.05;;;16.80;51.70;;;;;;5018687;28;20204;-79
2023/01/10 05:22:05;;;;;;;2.10;1.27;;;16.80;51.70;;;;;;5018335;28;20196;-79
2023/01/10 05:24:32;;;;;;;1.65;0.93;;;16.80;51.40;;;;;;5018241;28;20212;-79
2023/01/10 05:26:59;;;;;;;1.58;0.95;;;16.80;51.50;;;;;;5019581;28;20232;-79
2023/01/10 05:29:26;;;;;;;2.15;1.02;;;16.90;51.50;;;;;;5019737;28;20216;-79
2023/01/10 05:31:55;;;;;;;1.83;1.00;;;16.90;51.20;;;;;;5018777;28;20240;-79
2023/01/10 05:34:24;;;;;;;1.58;0.93;;;16.90;51.30;;;;;;5019658;28;20307;-79
2023/01/10 05:36:51;;;;;;;0.93;0.85;;;16.80;51.10;;;;;;5017405;28;20563;-79
2023/01/10 05:39:20;;;;;;;2.17;1.20;;;16.90;51.20;;;;;;5018698;28;20576;-79
2023/01/10 05:41:50;;;;;;;1.65;1.17;;;16.90;51.90;;;;;;5017917;28;20759;-79
2023/01/10 05:44:17;;;;;;;1.30;0.90;;;16.90;51.30;;;;;;5018665;28;20205;-79
2023/01/10 05:46:44;;;;;;;1.40;1.10;;;16.90;51.50;;;;;;5018091;28;20205;-79
2023/01/10 05:49:11;;;;;;;1.77;1.13;;;16.90;51.40;;;;;;5017218;28;20283;-79
2023/01/10 05:51:41;;;;;;;1.77;0.82;;;16.90;51.30;;;;;;5018280;28;20201;-79
2023/01/10 05:54:08;;;;;;;1.63;1.00;;;16.90;51.20;;;;;;5016409;28;20621;-79
2023/01/10 05:56:37;;;;;;;2.00;0.90;;;16.90;51.20;;;;;;5015755;28;20223;-79
2023/01/10 05:59:04;;;;;;;1.13;0.98;;;16.90;51.30;;;;;;5015367;28;20200;-79
2023/01/10 06:01:31;;;;;;;1.13;1.02;;;17.00;51.10;;;;;;5016087;28;20718;-79
2023/01/10 06:03:59;;;;;;;1.30;0.95;;;16.90;51.30;;;;;;5014820;28;20254;-81
2023/01/10 06:06:26;;;;;;;2.63;1.10;;;17.00;51.40;;;;;;5013280;28;20282;-79
2023/01/10 06:08:57;;;;;;;1.75;1.10;;;17.00;51.10;;;;;;5010644;28;20604;-79
2023/01/10 06:11:28;;;;;;;1.08;0.98;;;17.00;50.80;;;;;;5011080;28;20716;-80
2023/01/10 06:13:56;;;;;;;2.25;1.10;;;16.90;50.80;;;;;;4996253;28;20300;-80
2023/01/10 06:16:23;;;;;;;1.67;1.00;;;17.10;51.20;;;;;;5039090;22;20254;-54
2023/01/10 06:18:50;;;;;;;2.05;1.08;;;17.10;51.00;;;;;;5033877;28;20192;-55
2023/01/10 06:21:17;;;;;;;1.92;1.17;;;17.00;51.40;;;;;;5032478;28;20231;-55
2023/01/10 06:23:43;;;;;;;1.63;1.10;;;17.10;51.00;;;;;;5032657;28;20196;-55
2023/01/10 06:26:12;;;;;;;1.60;1.10;;;17.10;50.90;;;;;;5034634;28;20238;-56
2023/01/10 06:28:39;;;;;;;2.22;1.25;;;17.10;51.00;;;;;;5034620;28;20662;-55
2023/01/10 06:31:07;;;;;;;2.08;1.10;;;17.10;50.70;;;;;;5034989;28;20214;-54
2023/01/10 06:33:34;;;;;;;1.88;0.95;;;17.10;50.70;;;;;;5034213;28;20239;-55
2023/01/10 06:36:01;;;;;;;1.65;1.27;;;17.20;50.80;;;;;;5033606;28;20196;-55
2023/01/10 06:38:28;;;;;;;2.75;1.20;;;17.10;50.40;;;;;;5034341;28;20227;-55
2023/01/10 06:40:55;;;;;;;2.47;1.13;;;17.20;50.70;;;;;;5034268;28;20210;-55
2023/01/10 06:43:24;;;;;;;2.65;1.20;;;17.20;50.60;;;;;;5034180;28;20177;-55
2023/01/10 06:45:51;;;;;;;2.65;1.33;;;17.20;50.60;;;;;;5034168;28;20225;-55
2023/01/10 06:48:18;;;;;;;2.67;1.50;;;17.20;50.60;;;;;;5032669;28;20224;-55
2023/01/10 06:50:45;;;;;;;2.78;1.27;;;17.20;50.60;;;;;;5034300;28;20196;-54
2023/01/10 06:53:13;;;;;;;2.40;1.10;;;17.20;50.30;;;;;;5032612;28;20279;-54
2023/01/10 06:55:40;;;;;;;1.42;1.17;;;17.30;50.50;;;;;;5032541;28;20228;-54
2023/01/10 06:58:07;;;;;;;1.63;1.10;;;17.30;50.60;;;;;;5033671;28;20222;-54
2023/01/10 07:00:35;;;;;;;2.47;1.10;;;17.30;50.70;;;;;;5032404;28;20207;-54
2023/01/10 07:03:04;;;;;;;2.03;1.20;;;17.30;50.80;;;;;;5033764;28;20192;-54
2023/01/10 07:05:33;;;;;;;1.33;1.13;;;17.30;50.70;;;;;;5033712;28;20188;-54
2023/01/10 07:08:00;;;;;;;2.67;1.23;;;17.30;50.50;;;;;;5032418;28;20307;-54
2023/01/10 07:10:28;;;;;;;2.42;1.10;;;17.40;50.60;;;;;;5032300;28;20670;-54
2023/01/10 07:12:55;;;;;;;2.35;1.20;;;17.40;50.00;;;;;;5033919;28;20513;-54
2023/01/10 07:15:22;;;;;;;2.33;1.10;;;17.50;50.30;;;;;;5032056;28;20302;-54
2023/01/10 07:17:50;;;;;;;3.00;1.20;;;17.50;50.20;;;;;;5032194;28;20316;-54
2023/01/10 07:20:18;;;;;;;2.67;1.20;;;17.60;50.20;;;;;;5032200;28;20196;-54
2023/01/10 07:22:45;;;;;;;2.83;1.02;;;17.60;50.10;;;;;;5032178;28;20697;-54
2023/01/10 07:25:12;;;;;;;2.45;1.13;;;17.60;50.20;;;;;;5033541;28;20218;-54
2023/01/10 07:27:42;;;;;;;2.25;1.20;;;17.70;50.10;;;;;;5031919;28;20694;-55
2023/01/10 07:30:10;;;;;;;2.40;1.10;;;17.70;49.80;;;;;;5031962;28;20204;-55
2023/01/10 07:32:37;;;;;;;2.35;1.20;;;17.70;49.60;;;;;;5032087;28;20196;-55
2023/01/10 07:35:06;;;;;;;2.58;1.13;;;17.70;49.40;;;;;;5033668;28;20305;-55
2023/01/10 07:37:34;;;;;;;2.10;1.48;;;17.80;49.80;;;;;;5033211;28;20724;-55
2023/01/10 07:40:01;;;;;;;2.20;1.23;;;17.80;49.30;;;;;;5033389;28;20271;-55
2023/01/10 07:42:28;;;;;;;2.25;1.20;;;17.80;49.10;;;;;;5031846;28;20283;-55
2023/01/10 07:44:55;;;;;;;2.38;1.40;;;17.80;49.00;;;;;;5033130;28;20611;-55
2023/01/10 07:47:22;;;;;;;3.05;1.20;;;17.80;48.90;;;;;;5033184;28;20572;-55
2023/01/10 07:49:49;;;;;;;3.20;1.27;;;17.80;48.90;;;;;;5033306;28;20211;-55
2023/01/10 07:52:17;;;;;;;3.05;1.30;;;17.80;49.00;;;;;;5033154;28;20228;-55
2023/01/10 07:54:44;;;;;;;2.03;1.35;;;17.90;49.20;;;;;;5032945;28;20212;-55
2023/01/10 07:57:12;;;;;;;3.45;1.40;;;17.80;48.90;;;;;;5032925;28;20690;-55
2023/01/10 07:59:39;;;;;;;2.08;1.40;;;17.80;49.10;;;;;;5031657;28;20214;-55
2023/01/10 08:02:08;;;;;;;4.72;1.50;;;17.80;49.00;;;;;;5033003;28;20192;-54
2023/01/10 08:04:37;;;;;;;3.45;1.30;;;17.90;49.20;;;;;;5032035;28;20628;-55
2023/01/10 08:07:04;;;;;;;4.03;1.50;;;17.90;48.90;;;;;;5032038;28;20593;-55
2023/01/10 08:09:32;;;;;;;2.25;1.27;;;17.90;49.60;;;;;;5033245;28;20329;-55
2023/01/10 08:11:59;;;;;;;3.20;1.58;;;17.80;48.90;;;;;;5031520;28;20200;-55
2023/01/10 08:14:26;;;;;;;2.35;1.20;;;17.80;48.80;;;;;;5033269;28;20228;-55
2023/01/10 08:16:53;;;;;;;2.53;1.30;;;17.90;48.90;;;;;;5031882;28;20246;-55
2023/01/10 08:19:20;;;;;;;1.75;1.13;;;17.90;49.10;;;;;;5033355;28;20642;-55
2023/01/10 08:21:47;;;;;;;1.30;1.20;;;17.90;48.90;;;;;;5033055;28;20190;-55
2023/01/10 08:24:15;;;;;;;1.65;1.23;;;17.80;48.80;;;;;;5033114;28;20192;-55
2023/01/10 08:26:43;;;;;;;2.72;1.40;;;17.90;48.90;;;;;;5032874;28;20212;-54
2023/01/10 08:29:10;;;;;;;2.90;1.38;;;17.90;48.90;;;;;;5032845;28;20677;-55
2023/01/10 08:31:37;;;;;;;2.78;1.30;;;17.90;48.90;;;;;;5032703;28;20238;-55
2023/01/10 08:34:04;;;;;;;1.70;1.10;;;17.90;49.00;;;;;;5031311;28;20777;-55
2023/01/10 08:36:31;;;;;;;3.25;1.40;;;17.90;48.90;;;;;;5032575;28;20208;-54
2023/01/10 08:38:59;;;;;;;1.70;1.33;;;17.90;48.80;;;;;;5032732;28;20184;-54
2023/01/10 08:41:26;;;;;;;2.45;1.33;;;17.90;48.80;;;;;;5032781;28;20192;-55
2023/01/10 08:43:56;;;;;;;3.67;1.33;;;17.90;48.70;;;;;;5032590;28;20279;-55
2023/01/10 08:46:23;;;;;;;2.38;1.20;;;17.90;48.90;;;;;;5031119;28;20310;-55
2023/01/10 08:48:50;;;;;;;3.00;1.38;;;17.90;48.80;;;;;;5032462;28;20275;-55
2023/01/10 08:51:17;;;;;;;4.28;1.60;;;17.90;48.70;;;;;;5031083;28;20207;-55
2023/01/10 08:53:44;;;;;;;1.95;1.25;;;17.90;48.70;;;;;;5031148;28;20254;-55
2023/01/10 08:56:11;;;;;;;2.10;1.33;;;17.90;48.60;;;;;;5032518;28;20235;-55
2023/01/10 08:58:39;;;;;;;1.98;1.42;;;17.90;48.60;;;;;;5032393;28;20274;-55
2023/01/10 09:01:07;;;;;;;2.80;1.35;;;17.90;48.60;;;;;;5031072;28;20196;-55
2023/01/10 09:03:35;;;;;;;2.40;1.27;;;17.90;48.70;;;;;;5032319;28;20195;-54
2023/01/10 09:06:01;;;;;;;1.80;1.38;;;17.90;49.20;;;;;;5030836;28;20728;-55
2023/01/10 09:08:29;;;;;;;2.00;1.42;;;17.90;48.60;;;;;;5030979;28;20197;-54
2023/01/10 09:10:58;;;;;;;1.63;1.10;;;18.00;48.60;;;;;;5030893;28;20200;-54
2023/01/10 09:13:25;;;;;;;3.28;1.50;;;18.00;48.60;;;;;;5030817;28;20192;-54
2023/01/10 09:15:52;;;;;;;2.33;1.42;;;18.00;48.40;;;;;;5032030;28;20216;-55
2023/01/10 09:18:21;;;;;;;3.33;1.50;;;18.00;48.60;;;;;;5032048;28;20698;-55
2023/01/10 09:20:49;;;;;;;2.92;1.50;;;18.00;48.50;;;;;;5030691;28;20676;-54
2023/01/10 09:23:18;;;;;;;1.88;1.25;;;18.00;48.60;;;;;;5032557;28;20188;-54
2023/01/10 09:25:46;;;;;;;2.30;1.40;;;18.00;48.60;;;;;;5035621;28;20619;-54
2023/01/10 09:28:13;;;;;;;3.65;1.50;;;18.00;48.60;;;;;;5035813;28;20219;-55
2023/01/10 09:30:40;;;;;;;2.70;1.25;;;18.10;48.70;;;;;;5035798;28;20654;-55
2023/01/10 09:33:07;;;;;;;2.60;1.40;;;18.10;49.00;;;;;;5035565;28;20674;-54
2023/01/10 09:35:37;;;;;;;1.75;1.27;;;18.10;48.50;;;;;;5034297;28;20596;-54
2023/01/10 09:38:04;;;;;;;2.50;1.35;;;18.10;48.50;;;;;;5035461;28;20212;-55
2023/01/10 09:40:43;;;;;;;3.95;1.75;;;18.10;48.30;;;;;;5034127;28;20298;-55
2023/01/10 09:43:14;;;;;;;2.05;1.30;;;18.10;48.10;;;;;;5035628;28;20234;-55
2023/01/10 09:45:46;;;;;;;1.88;1.30;;;18.10;48.30;;;;;;5035502;28;20228;-55
2023/01/10 09:48:15;;;;;;;3.72;1.50;;;18.20;48.40;;;;;;5035318;28;20208;-55
2023/01/10 09:50:46;;;;;;;1.95;1.40;;;18.20;48.30;;;;;;5035356;28;20561;-54
2023/01/10 09:53:15;;;;;;;2.88;1.58;;;18.20;48.30;;;;;;5033940;28;20251;-55
2023/01/10 09:55:42;;;;;;;3.08;1.52;;;18.20;48.10;;;;;;5035331;28;20638;-54
2023/01/10 09:58:11;;;;;;;2.83;1.40;;;18.20;48.30;;;;;;5034143;28;20674;-54
2023/01/10 10:00:41;;;;;;;1.85;1.52;;;18.20;48.40;;;;;;5035079;28;20672;-55
2023/01/10 10:03:16;;;;;;;1.85;1.20;;;18.20;48.30;;;;;;5033635;28;20204;-54
2023/01/10 10:05:45;;;;;;;2.00;1.40;;;18.20;48.30;;;;;;5035297;28;20247;-55
2023/01/10 10:08:16;;;;;;;2.78;1.23;;;18.20;48.40;;;;;;5035154;28;20243;-55
2023/01/10 10:10:51;;;;;;;2.15;1.45;;;18.20;48.30;;;;;;5033945;28;20570;-55
2023/01/10 10:13:21;;;;;;;2.30;1.40;;;18.20;48.30;;;;;;5034820;28;20700;-55
2023/01/10 10:15:51;;;;;;;2.83;1.48;;;18.20;48.20;;;;;;5034644;28;20289;-55
2023/01/10 10:18:25;;;;;;;1.67;1.20;;;18.20;48.10;;;;;;5041273;22;20652;-82
2023/01/10 10:20:58;;;;;;;3.92;1.48;;;18.20;48.20;;;;;;5034672;28;20294;-82
2023/01/10 10:23:56;;;;;;;2.95;1.60;;;18.20;48.10;;;;;;5035177;28;20299;-82
2023/01/10 10:26:28;;;;;;;2.75;1.55;;;18.20;48.20;;;;;;5030645;28;20223;-82
2023/01/10 10:29:07;;;;;;;2.22;1.30;;;18.20;48.00;;;;;;5034955;28;20204;-82
2023/01/10 10:31:41;;;;;;;2.20;1.38;;;18.30;48.00;;;;;;5038174;28;20199;-82
2023/01/10 10:34:12;;;;;;;2.30;1.40;;;18.30;48.00;;;;;;5036955;28;20631;-82
2023/01/10 10:36:43;;;;;;;1.92;1.30;;;18.30;48.00;;;;;;5018250;28;20204;-82
2023/01/10 10:39:12;;;;;;;2.33;1.27;;;18.30;47.90;;;;;;5034834;28;20188;-82
2023/01/10 10:41:41;;;;;;;2.42;1.58;;;18.30;47.80;;;;;;5034657;28;20204;-82
2023/01/10 10:44:16;;;;;;;2.47;1.33;;;18.40;48.00;;;;;;5034332;28;20207;-82
2023/01/10 10:46:43;;;;;;;1.90;1.30;;;18.40;47.90;;;;;;5036219;28;20183;-82
2023/01/10 10:49:14;;;;;;;2.17;1.30;;;18.30;48.00;;;;;;5035951;28;20196;-82
2023/01/10 10:51:46;;;;;;;1.55;1.20;;;18.30;48.00;;;;;;5035195;28;20211;-82
2023/01/10 10:54:15;;;;;;;1.50;1.13;;;18.30;48.10;;;;;;5034702;28;20207;-81
2023/01/10 10:56:42;;;;;;;2.33;1.33;;;18.30;48.00;;;;;;5033971;28;20203;-81
2023/01/10 10:59:09;;;;;;;2.75;1.33;;;18.30;47.70;;;;;;5033728;28;20203;-81
2023/01/10 11:01:36;;;;;;;2.60;1.40;;;18.30;47.60;;;;;;5033766;28;20200;-81
2023/01/10 11:04:05;;;;;;;2.35;1.17;;;18.40;48.10;;;;;;5034947;28;20262;-81
2023/01/10 11:06:32;;;;;;;2.13;1.25;;;18.40;47.90;;;;;;5035109;28;20188;-81
2023/01/10 11:09:03;;;;;;;1.85;1.20;;;18.40;47.90;;;;;;5033610;28;20200;-81
2023/01/10 11:11:32;;;;;;;2.03;1.30;;;18.40;48.00;;;;;;5033697;28;20197;-81
2023/01/10 11:14:00;;;;;;;2.28;1.23;;;18.50;47.90;;;;;;5033586;28;20196;-81
2023/01/10 11:16:29;;;;;;;1.48;0.98;;;18.50;47.90;;;;;;5033488;28;20761;-81
2023/01/10 11:19:28;;;;;;;1.90;1.20;;;18.50;47.90;;;;;;5033280;28;20218;-81
2023/01/10 11:21:56;;;;;;;1.88;1.33;;;18.40;47.80;;;;;;4977297;28;20205;-81
2023/01/10 11:24:27;;;;;;;2.28;1.50;;;18.40;47.80;;;;;;5021809;28;20226;-80
2023/01/10 11:26:55;;;;;;;2.08;1.00;;;18.40;47.90;;;;;;5035069;28;20211;-80
2023/01/10 11:29:25;;;;;;;1.83;1.35;;;18.40;47.80;;;;;;5048544;28;20272;-80
2023/01/10 11:31:53;;;;;;;2.03;1.30;;;18.40;47.90;;;;;;5053158;28;20200;-80
2023/01/10 11:34:22;;;;;;;2.83;1.40;;;18.50;47.90;;;;;;5053708;28;21518;-80
2023/01/10 11:36:57;;;;;;;2.13;1.30;;;18.50;47.90;;;;;;5053769;28;20224;-80
2023/01/10 11:39:26;;;;;;;2.45;1.42;;;18.50;48.40;;;;;;5053618;28;20199;-80
2023/01/10 11:41:54;;;;;;;2.40;1.27;;;18.50;47.80;;;;;;5054441;28;20188;-80
2023/01/10 11:44:23;;;;;;;1.45;1.20;;;18.50;47.70;;;;;;5055189;28;20208;-80
2023/01/10 11:46:51;;;;;;;2.17;1.23;;;18.50;47.50;;;;;;5052096;28;20192;-80
2023/01/10 11:49:23;;;;;;;2.33;1.33;;;18.50;47.70;;;;;;5034675;28;20204;-80
2023/01/10 11:51:51;;;;;;;2.13;1.33;;;18.50;47.60;;;;;;5035014;28;20222;-80
2023/01/10 11:54:19;;;;;;;2.85;1.60;;;18.60;47.60;;;;;;5033870;28;20211;-80
2023/01/10 11:56:54;;;;;;;2.22;1.30;;;18.60;48.10;;;;;;5034029;28;20216;-80
2023/01/10 11:59:21;;;;;;;1.90;1.27;;;18.60;47.60;;;;;;5039679;28;20381;-80
2023/01/10 12:01:53;;;;;;;1.92;1.13;;;18.60;47.50;;;;;;5040628;28;20196;-80
2023/01/10 12:04:20;;;;;;;1.63;1.13;;;18.60;47.40;;;;;;5048772;28;20188;-80
2023/01/10 12:06:50;;;;;;;1.38;1.15;;;18.60;47.80;;;;;;5033234;28;20208;-80
2023/01/10 12:09:39;;;;;;;2.38;1.10;;;18.60;47.40;;;;;;5050109;28;20256;-80
2023/01/10 12:12:16;;;;;;;1.60;1.10;;;18.60;48.00;;;;;;5049921;28;20681;-80
2023/01/10 12:14:43;;;;;;;2.15;1.20;;;18.60;47.50;;;;;;5049517;28;20219;-80
2023/01/10 12:17:12;;;;;;;3.22;1.40;;;18.60;47.40;;;;;;5040648;28;20199;-80
2023/01/10 12:19:40;;;;;;;2.53;1.25;;;18.60;47.40;;;;;;5033326;28;20228;-80
2023/01/10 12:22:07;;;;;;;1.77;1.10;;;18.60;47.20;;;;;;5033326;28;20681;-80
2023/01/10 12:24:35;;;;;;;1.65;1.13;;;18.60;47.40;;;;;;5033567;28;20230;-80
2023/01/10 12:27:04;;;;;;;1.27;1.10;;;18.70;47.50;;;;;;5042197;28;20198;-80
2023/01/10 12:29:34;;;;;;;1.90;1.30;;;18.60;47.20;;;;;;5042588;28;20698;-80
2023/01/10 12:32:02;;;;;;;2.85;1.48;;;18.60;47.20;;;;;;5041805;28;20196;-80
2023/01/10 12:34:33;;;;;;;2.17;1.38;;;18.70;47.90;;;;;;5040530;28;20220;-81
2023/01/10 12:37:05;;;;;;;2.63;1.25;;;18.60;47.20;;;;;;5040397;28;20295;-82
2023/01/10 12:39:33;;;;;;;2.85;1.60;;;18.70;47.40;;;;;;5038941;28;20192;-82
2023/01/10 12:45:01;;;;;;;1.67;1.15;;;18.70;47.30;;;;;;5037755;28;20215;-82
2023/01/10 12:47:30;;;;;;;3.20;1.50;;;18.70;47.20;;;;;;5037773;28;20219;-81
2023/01/10 12:49:59;;;;;;;2.90;1.30;;;18.70;47.30;;;;;;5034197;28;20239;-81
2023/01/10 12:52:32;;;;;;;1.83;1.20;;;18.70;47.30;;;;;;5032658;28;20223;-81
2023/01/10 12:54:59;;;;;;;2.63;1.38;;;18.70;47.50;;;;;;5032960;28;20228;-81
2023/01/10 12:57:28;;;;;;;2.25;1.48;;;18.80;47.30;;;;;;5033402;28;20196;-82
2023/01/10 12:59:55;;;;;;;1.92;1.02;;;18.80;47.20;;;;;;5037136;28;20250;-82
2023/01/10 13:02:25;;;;;;;1.40;1.10;;;18.80;47.30;;;;;;5038761;28;20246;-82
2023/01/10 13:05:00;;;;;;;2.25;1.17;;;18.80;47.20;;;;;;5038310;28;20220;-82
2023/01/10 13:07:29;;;;;;;1.65;1.00;;;18.80;47.30;;;;;;5037852;28;20188;-82
2023/01/10 13:09:56;;;;;;;1.48;1.00;;;18.90;47.40;;;;;;5041079;28;20677;-82